sensor_id;sensor_type;location;lat;lon;timestamp;P1;durP1;ratioP1;P2;durP2;ratioP2
28766;SDS011;15921;52.034;20.650;2022-10-31T00:02:06;43.40;;;22.30;;
28766;SDS011;15921;52.034;20.650;2022-10-31T00:04:32;34.92;;;18.88;;
28766;SDS011;15921;52.034;20.650;2022-10-31T00:06:58;34.83;;;20.33;;
28766;SDS011;15921;52.034;20.650;2022-10-31T00:09:24;34.13;;;20.13;;
28766;SDS011;15921;52.034;20.650;2022-10-31T00:11:49;35.92;;;20.13;;
28766;SDS011;15921;52.034;20.650;2022-10-31T00:14:15;39.35;;;21.63;;
28766;SDS011;15921;52.034;20.650;2022-10-31T00:16:41;46.03;;;22.95;;
28766;SDS011;15921;52.034;20.650;2022-10-31T00:19:06;40.17;;;20.65;;
28766;SDS011;15921;52.034;20.650;2022-10-31T00:21:33;36.28;;;20.38;;
28766;SDS011;15921;52.034;20.650;2022-10-31T00:24:00;43.95;;;21.13;;
28766;SDS011;15921;52.034;20.650;2022-10-31T00:26:26;52.05;;;22.42;;
28766;SDS011;15921;52.034;20.650;2022-10-31T00:28:53;37.55;;;22.60;;
28766;SDS011;15921;52.034;20.650;2022-10-31T00:31:19;42.85;;;22.85;;
28766;SDS011;15921;52.034;20.650;2022-10-31T00:33:45;42.75;;;22.83;;
28766;SDS011;15921;52.034;20.650;2022-10-31T00:36:12;42.83;;;22.92;;
28766;SDS011;15921;52.034;20.650;2022-10-31T00:38:40;41.70;;;22.33;;
28766;SDS011;15921;52.034;20.650;2022-10-31T00:41:06;39.60;;;21.88;;
28766;SDS011;15921;52.034;20.650;2022-10-31T00:43:32;38.10;;;22.10;;
28766;SDS011;15921;52.034;20.650;2022-10-31T00:45:58;42.05;;;21.77;;
28766;SDS011;15921;52.034;20.650;2022-10-31T00:48:24;39.13;;;22.05;;
28766;SDS011;15921;52.034;20.650;2022-10-31T00:50:49;33.33;;;20.08;;
28766;SDS011;15921;52.034;20.650;2022-10-31T00:53:15;37.92;;;22.20;;
28766;SDS011;15921;52.034;20.650;2022-10-31T00:55:41;48.63;;;23.65;;
28766;SDS011;15921;52.034;20.650;2022-10-31T00:58:06;42.25;;;22.55;;
28766;SDS011;15921;52.034;20.650;2022-10-31T01:00:32;43.55;;;22.45;;
28766;SDS011;15921;52.034;20.650;2022-10-31T01:02:58;40.75;;;21.85;;
28766;SDS011;15921;52.034;20.650;2022-10-31T01:05:24;43.35;;;21.95;;
28766;SDS011;15921;52.034;20.650;2022-10-31T01:07:50;43.70;;;22.20;;
28766;SDS011;15921;52.034;20.650;2022-10-31T01:10:16;40.75;;;21.85;;
28766;SDS011;15921;52.034;20.650;2022-10-31T01:12:44;41.13;;;21.63;;
28766;SDS011;15921;52.034;20.650;2022-10-31T01:15:12;35.47;;;20.73;;
28766;SDS011;15921;52.034;20.650;2022-10-31T01:17:39;37.40;;;19.50;;
28766;SDS011;15921;52.034;20.650;2022-10-31T01:20:05;32.70;;;20.13;;
28766;SDS011;15921;52.034;20.650;2022-10-31T01:22:33;43.03;;;21.65;;
28766;SDS011;15921;52.034;20.650;2022-10-31T01:24:59;40.22;;;20.15;;
28766;SDS011;15921;52.034;20.650;2022-10-31T01:27:25;37.88;;;19.95;;
28766;SDS011;15921;52.034;20.650;2022-10-31T01:29:50;33.30;;;18.60;;
28766;SDS011;15921;52.034;20.650;2022-10-31T01:32:16;37.35;;;19.42;;
28766;SDS011;15921;52.034;20.650;2022-10-31T01:34:42;35.30;;;19.00;;
28766;SDS011;15921;52.034;20.650;2022-10-31T01:37:08;46.58;;;20.42;;
28766;SDS011;15921;52.034;20.650;2022-10-31T01:39:33;43.88;;;22.27;;
28766;SDS011;15921;52.034;20.650;2022-10-31T01:41:59;42.85;;;20.67;;
28766;SDS011;15921;52.034;20.650;2022-10-31T01:49:38;35.22;;;19.70;;
28766;SDS011;15921;52.034;20.650;2022-10-31T01:54:47;34.80;;;19.40;;
28766;SDS011;15921;52.034;20.650;2022-10-31T01:57:16;34.92;;;19.38;;
28766;SDS011;15921;52.034;20.650;2022-10-31T01:59:47;38.40;;;20.00;;
28766;SDS011;15921;52.034;20.650;2022-10-31T02:02:15;32.13;;;18.27;;
28766;SDS011;15921;52.034;20.650;2022-10-31T02:04:43;39.17;;;19.38;;
28766;SDS011;15921;52.034;20.650;2022-10-31T02:07:20;36.45;;;19.33;;
28766;SDS011;15921;52.034;20.650;2022-10-31T02:12:18;34.60;;;18.92;;
28766;SDS011;15921;52.034;20.650;2022-10-31T02:14:45;31.55;;;17.95;;
28766;SDS011;15921;52.034;20.650;2022-10-31T02:17:11;37.33;;;20.50;;
28766;SDS011;15921;52.034;20.650;2022-10-31T02:19:41;38.22;;;19.50;;
28766;SDS011;15921;52.034;20.650;2022-10-31T02:22:26;33.25;;;17.15;;
28766;SDS011;15921;52.034;20.650;2022-10-31T02:33:33;34.70;;;19.05;;
28766;SDS011;15921;52.034;20.650;2022-10-31T02:45:10;33.70;;;18.63;;
28766;SDS011;15921;52.034;20.650;2022-10-31T02:47:43;35.95;;;17.95;;
28766;SDS011;15921;52.034;20.650;2022-10-31T02:50:15;32.10;;;17.90;;
28766;SDS011;15921;52.034;20.650;2022-10-31T02:52:49;34.15;;;17.48;;
28766;SDS011;15921;52.034;20.650;2022-10-31T02:57:56;35.08;;;18.05;;
28766;SDS011;15921;52.034;20.650;2022-10-31T03:00:26;33.58;;;17.67;;
28766;SDS011;15921;52.034;20.650;2022-10-31T03:03:13;32.63;;;17.52;;
28766;SDS011;15921;52.034;20.650;2022-10-31T03:06:08;31.50;;;16.98;;
28766;SDS011;15921;52.034;20.650;2022-10-31T03:08:47;31.55;;;17.95;;
28766;SDS011;15921;52.034;20.650;2022-10-31T03:11:22;40.80;;;19.30;;
28766;SDS011;15921;52.034;20.650;2022-10-31T03:14:00;28.80;;;17.20;;
28766;SDS011;15921;52.034;20.650;2022-10-31T03:16:46;31.58;;;17.67;;
28766;SDS011;15921;52.034;20.650;2022-10-31T03:19:15;33.83;;;18.27;;
28766;SDS011;15921;52.034;20.650;2022-10-31T03:22:04;33.53;;;17.98;;
28766;SDS011;15921;52.034;20.650;2022-10-31T03:24:38;35.83;;;19.83;;
28766;SDS011;15921;52.034;20.650;2022-10-31T03:27:05;32.88;;;17.13;;
28766;SDS011;15921;52.034;20.650;2022-10-31T03:29:35;31.50;;;18.02;;
28766;SDS011;15921;52.034;20.650;2022-10-31T03:32:04;34.17;;;17.27;;
28766;SDS011;15921;52.034;20.650;2022-10-31T03:34:39;31.33;;;17.92;;
28766;SDS011;15921;52.034;20.650;2022-10-31T03:37:08;27.10;;;15.77;;
28766;SDS011;15921;52.034;20.650;2022-10-31T03:39:38;35.63;;;19.45;;
28766;SDS011;15921;52.034;20.650;2022-10-31T03:42:07;35.00;;;18.85;;
28766;SDS011;15921;52.034;20.650;2022-10-31T03:44:36;30.17;;;17.98;;
28766;SDS011;15921;52.034;20.650;2022-10-31T03:47:06;27.75;;;16.55;;
28766;SDS011;15921;52.034;20.650;2022-10-31T03:49:32;30.42;;;17.23;;
28766;SDS011;15921;52.034;20.650;2022-10-31T03:52:06;30.35;;;15.95;;
28766;SDS011;15921;52.034;20.650;2022-10-31T03:54:52;31.83;;;17.58;;
28766;SDS011;15921;52.034;20.650;2022-10-31T03:57:27;32.47;;;19.73;;
28766;SDS011;15921;52.034;20.650;2022-10-31T04:02:45;34.00;;;19.40;;
28766;SDS011;15921;52.034;20.650;2022-10-31T04:05:24;29.58;;;17.48;;
28766;SDS011;15921;52.034;20.650;2022-10-31T04:07:51;32.97;;;18.75;;
28766;SDS011;15921;52.034;20.650;2022-10-31T04:10:19;29.48;;;17.52;;
28766;SDS011;15921;52.034;20.650;2022-10-31T04:12:49;31.70;;;18.17;;
28766;SDS011;15921;52.034;20.650;2022-10-31T04:15:21;28.20;;;17.92;;
28766;SDS011;15921;52.034;20.650;2022-10-31T04:17:48;33.88;;;19.08;;
28766;SDS011;15921;52.034;20.650;2022-10-31T04:20:17;31.42;;;18.67;;
28766;SDS011;15921;52.034;20.650;2022-10-31T04:22:43;30.45;;;18.77;;
28766;SDS011;15921;52.034;20.650;2022-10-31T04:25:09;34.33;;;20.17;;
28766;SDS011;15921;52.034;20.650;2022-10-31T04:27:34;33.33;;;19.65;;
28766;SDS011;15921;52.034;20.650;2022-10-31T04:30:00;38.15;;;21.38;;
28766;SDS011;15921;52.034;20.650;2022-10-31T04:32:26;35.47;;;20.90;;
28766;SDS011;15921;52.034;20.650;2022-10-31T04:34:51;34.03;;;20.55;;
28766;SDS011;15921;52.034;20.650;2022-10-31T04:37:17;32.42;;;19.20;;
28766;SDS011;15921;52.034;20.650;2022-10-31T04:39:43;34.05;;;20.02;;
28766;SDS011;15921;52.034;20.650;2022-10-31T04:42:08;31.27;;;19.02;;
28766;SDS011;15921;52.034;20.650;2022-10-31T04:44:34;33.65;;;19.60;;
28766;SDS011;15921;52.034;20.650;2022-10-31T04:47:00;29.77;;;18.10;;
28766;SDS011;15921;52.034;20.650;2022-10-31T04:49:25;27.05;;;17.23;;
28766;SDS011;15921;52.034;20.650;2022-10-31T04:51:51;29.63;;;17.85;;
28766;SDS011;15921;52.034;20.650;2022-10-31T04:54:17;33.22;;;18.70;;
28766;SDS011;15921;52.034;20.650;2022-10-31T04:56:43;32.25;;;18.73;;
28766;SDS011;15921;52.034;20.650;2022-10-31T04:59:08;28.65;;;17.63;;
28766;SDS011;15921;52.034;20.650;2022-10-31T05:01:34;34.20;;;19.42;;
28766;SDS011;15921;52.034;20.650;2022-10-31T05:04:00;29.58;;;17.75;;
28766;SDS011;15921;52.034;20.650;2022-10-31T05:06:25;32.17;;;19.17;;
28766;SDS011;15921;52.034;20.650;2022-10-31T05:08:51;32.55;;;19.55;;
28766;SDS011;15921;52.034;20.650;2022-10-31T05:11:17;27.77;;;17.42;;
28766;SDS011;15921;52.034;20.650;2022-10-31T05:13:43;29.20;;;18.48;;
28766;SDS011;15921;52.034;20.650;2022-10-31T05:16:08;25.65;;;15.98;;
28766;SDS011;15921;52.034;20.650;2022-10-31T05:18:34;27.13;;;16.52;;
28766;SDS011;15921;52.034;20.650;2022-10-31T05:21:00;23.52;;;14.98;;
28766;SDS011;15921;52.034;20.650;2022-10-31T05:23:25;23.75;;;13.82;;
28766;SDS011;15921;52.034;20.650;2022-10-31T05:25:51;26.13;;;14.57;;
28766;SDS011;15921;52.034;20.650;2022-10-31T05:28:17;25.80;;;15.75;;
28766;SDS011;15921;52.034;20.650;2022-10-31T05:30:42;22.02;;;14.30;;
28766;SDS011;15921;52.034;20.650;2022-10-31T05:33:08;27.30;;;15.90;;
28766;SDS011;15921;52.034;20.650;2022-10-31T05:35:34;23.83;;;14.30;;
28766;SDS011;15921;52.034;20.650;2022-10-31T05:37:59;25.45;;;15.32;;
28766;SDS011;15921;52.034;20.650;2022-10-31T05:40:26;29.83;;;18.25;;
28766;SDS011;15921;52.034;20.650;2022-10-31T05:42:52;35.85;;;19.48;;
28766;SDS011;15921;52.034;20.650;2022-10-31T05:45:19;35.92;;;19.80;;
28766;SDS011;15921;52.034;20.650;2022-10-31T05:48:04;37.13;;;21.50;;
28766;SDS011;15921;52.034;20.650;2022-10-31T05:50:30;41.22;;;21.77;;
28766;SDS011;15921;52.034;20.650;2022-10-31T05:52:58;50.40;;;26.98;;
28766;SDS011;15921;52.034;20.650;2022-10-31T05:55:25;46.75;;;23.98;;
28766;SDS011;15921;52.034;20.650;2022-10-31T05:57:52;46.90;;;23.30;;
28766;SDS011;15921;52.034;20.650;2022-10-31T06:00:18;52.58;;;24.25;;
28766;SDS011;15921;52.034;20.650;2022-10-31T06:02:44;50.60;;;23.50;;
28766;SDS011;15921;52.034;20.650;2022-10-31T06:05:10;60.78;;;24.92;;
28766;SDS011;15921;52.034;20.650;2022-10-31T06:07:36;42.40;;;20.98;;
28766;SDS011;15921;52.034;20.650;2022-10-31T06:10:03;47.97;;;22.55;;
28766;SDS011;15921;52.034;20.650;2022-10-31T06:12:29;46.28;;;22.27;;
28766;SDS011;15921;52.034;20.650;2022-10-31T06:14:55;36.90;;;19.88;;
28766;SDS011;15921;52.034;20.650;2022-10-31T06:17:21;42.38;;;22.17;;
28766;SDS011;15921;52.034;20.650;2022-10-31T06:19:47;41.13;;;21.02;;
28766;SDS011;15921;52.034;20.650;2022-10-31T06:22:12;51.72;;;22.48;;
28766;SDS011;15921;52.034;20.650;2022-10-31T06:24:38;38.20;;;19.40;;
28766;SDS011;15921;52.034;20.650;2022-10-31T06:27:04;36.10;;;19.23;;
28766;SDS011;15921;52.034;20.650;2022-10-31T06:29:30;35.28;;;16.90;;
28766;SDS011;15921;52.034;20.650;2022-10-31T06:31:56;35.35;;;18.25;;
28766;SDS011;15921;52.034;20.650;2022-10-31T06:34:22;42.42;;;20.10;;
28766;SDS011;15921;52.034;20.650;2022-10-31T06:36:48;35.28;;;18.17;;
28766;SDS011;15921;52.034;20.650;2022-10-31T06:39:13;35.15;;;17.67;;
28766;SDS011;15921;52.034;20.650;2022-10-31T06:41:39;37.75;;;18.23;;
28766;SDS011;15921;52.034;20.650;2022-10-31T06:44:06;29.98;;;16.77;;
28766;SDS011;15921;52.034;20.650;2022-10-31T06:46:32;35.22;;;16.85;;
28766;SDS011;15921;52.034;20.650;2022-10-31T06:48:58;29.27;;;16.63;;
28766;SDS011;15921;52.034;20.650;2022-10-31T06:51:24;27.02;;;15.30;;
28766;SDS011;15921;52.034;20.650;2022-10-31T06:53:50;26.65;;;14.70;;
28766;SDS011;15921;52.034;20.650;2022-10-31T06:56:16;24.80;;;14.75;;
28766;SDS011;15921;52.034;20.650;2022-10-31T06:58:41;24.15;;;13.75;;
28766;SDS011;15921;52.034;20.650;2022-10-31T07:01:07;34.72;;;15.95;;
28766;SDS011;15921;52.034;20.650;2022-10-31T07:03:33;25.65;;;14.05;;
28766;SDS011;15921;52.034;20.650;2022-10-31T07:05:59;30.27;;;15.43;;
28766;SDS011;15921;52.034;20.650;2022-10-31T07:08:24;24.67;;;14.63;;
28766;SDS011;15921;52.034;20.650;2022-10-31T07:10:51;24.38;;;14.20;;
28766;SDS011;15921;52.034;20.650;2022-10-31T07:13:18;22.33;;;13.82;;
28766;SDS011;15921;52.034;20.650;2022-10-31T07:15:49;22.60;;;14.23;;
28766;SDS011;15921;52.034;20.650;2022-10-31T07:18:16;21.92;;;13.73;;
28766;SDS011;15921;52.034;20.650;2022-10-31T07:20:41;25.00;;;14.52;;
28766;SDS011;15921;52.034;20.650;2022-10-31T07:23:08;30.33;;;15.40;;
28766;SDS011;15921;52.034;20.650;2022-10-31T07:25:38;26.70;;;13.60;;
28766;SDS011;15921;52.034;20.650;2022-10-31T07:28:04;28.13;;;15.88;;
28766;SDS011;15921;52.034;20.650;2022-10-31T07:30:30;27.00;;;14.57;;
28766;SDS011;15921;52.034;20.650;2022-10-31T07:32:56;34.75;;;16.30;;
28766;SDS011;15921;52.034;20.650;2022-10-31T07:35:23;25.48;;;16.17;;
28766;SDS011;15921;52.034;20.650;2022-10-31T07:37:50;25.42;;;15.02;;
28766;SDS011;15921;52.034;20.650;2022-10-31T07:40:16;27.10;;;15.20;;
28766;SDS011;15921;52.034;20.650;2022-10-31T07:42:44;26.30;;;15.70;;
28766;SDS011;15921;52.034;20.650;2022-10-31T07:45:13;28.45;;;16.42;;
28766;SDS011;15921;52.034;20.650;2022-10-31T07:47:45;34.70;;;18.05;;
28766;SDS011;15921;52.034;20.650;2022-10-31T07:50:15;28.80;;;16.65;;
28766;SDS011;15921;52.034;20.650;2022-10-31T07:52:42;30.50;;;17.58;;
28766;SDS011;15921;52.034;20.650;2022-10-31T07:55:08;29.23;;;17.88;;
28766;SDS011;15921;52.034;20.650;2022-10-31T07:57:34;27.83;;;16.20;;
28766;SDS011;15921;52.034;20.650;2022-10-31T08:00:11;27.35;;;16.33;;
28766;SDS011;15921;52.034;20.650;2022-10-31T08:02:37;29.98;;;16.35;;
28766;SDS011;15921;52.034;20.650;2022-10-31T08:05:02;33.13;;;17.77;;
28766;SDS011;15921;52.034;20.650;2022-10-31T08:07:28;31.73;;;19.23;;
28766;SDS011;15921;52.034;20.650;2022-10-31T08:09:54;28.48;;;17.40;;
28766;SDS011;15921;52.034;20.650;2022-10-31T08:12:20;30.15;;;16.85;;
28766;SDS011;15921;52.034;20.650;2022-10-31T08:14:46;25.50;;;16.75;;
28766;SDS011;15921;52.034;20.650;2022-10-31T08:17:12;30.75;;;17.35;;
28766;SDS011;15921;52.034;20.650;2022-10-31T08:19:38;29.30;;;18.58;;
28766;SDS011;15921;52.034;20.650;2022-10-31T08:22:03;29.00;;;18.90;;
28766;SDS011;15921;52.034;20.650;2022-10-31T08:24:29;35.97;;;20.50;;
28766;SDS011;15921;52.034;20.650;2022-10-31T08:26:55;37.63;;;19.80;;
28766;SDS011;15921;52.034;20.650;2022-10-31T08:29:20;33.75;;;20.73;;
28766;SDS011;15921;52.034;20.650;2022-10-31T08:31:46;31.83;;;20.42;;
28766;SDS011;15921;52.034;20.650;2022-10-31T08:34:12;35.70;;;21.60;;
28766;SDS011;15921;52.034;20.650;2022-10-31T08:36:38;52.10;;;26.10;;
28766;SDS011;15921;52.034;20.650;2022-10-31T08:39:03;53.83;;;27.60;;
28766;SDS011;15921;52.034;20.650;2022-10-31T08:41:29;54.08;;;29.20;;
28766;SDS011;15921;52.034;20.650;2022-10-31T08:43:55;57.42;;;31.05;;
28766;SDS011;15921;52.034;20.650;2022-10-31T08:46:21;64.35;;;30.90;;
28766;SDS011;15921;52.034;20.650;2022-10-31T08:48:49;61.40;;;29.95;;
28766;SDS011;15921;52.034;20.650;2022-10-31T08:51:15;61.20;;;29.42;;
28766;SDS011;15921;52.034;20.650;2022-10-31T08:53:41;59.15;;;29.48;;
28766;SDS011;15921;52.034;20.650;2022-10-31T08:56:07;63.50;;;31.95;;
28766;SDS011;15921;52.034;20.650;2022-10-31T08:58:32;63.53;;;29.30;;
28766;SDS011;15921;52.034;20.650;2022-10-31T09:00:59;55.30;;;29.13;;
28766;SDS011;15921;52.034;20.650;2022-10-31T09:03:26;68.65;;;33.00;;
28766;SDS011;15921;52.034;20.650;2022-10-31T09:05:55;69.63;;;32.75;;
28766;SDS011;15921;52.034;20.650;2022-10-31T09:08:22;60.15;;;30.73;;
28766;SDS011;15921;52.034;20.650;2022-10-31T09:10:51;53.92;;;27.70;;
28766;SDS011;15921;52.034;20.650;2022-10-31T09:13:20;54.92;;;28.25;;
28766;SDS011;15921;52.034;20.650;2022-10-31T09:15:47;55.90;;;28.45;;
28766;SDS011;15921;52.034;20.650;2022-10-31T09:18:14;56.67;;;29.85;;
28766;SDS011;15921;52.034;20.650;2022-10-31T09:20:42;62.45;;;31.38;;
28766;SDS011;15921;52.034;20.650;2022-10-31T09:23:13;64.78;;;32.38;;
28766;SDS011;15921;52.034;20.650;2022-10-31T09:25:44;60.50;;;30.02;;
28766;SDS011;15921;52.034;20.650;2022-10-31T09:28:12;64.07;;;30.88;;
28766;SDS011;15921;52.034;20.650;2022-10-31T09:30:38;61.75;;;31.23;;
28766;SDS011;15921;52.034;20.650;2022-10-31T09:33:05;61.38;;;32.72;;
28766;SDS011;15921;52.034;20.650;2022-10-31T09:35:34;55.67;;;30.38;;
28766;SDS011;15921;52.034;20.650;2022-10-31T09:38:03;58.38;;;30.88;;
28766;SDS011;15921;52.034;20.650;2022-10-31T09:44:02;60.22;;;31.65;;
28766;SDS011;15921;52.034;20.650;2022-10-31T09:46:18;68.25;;;32.95;;
28766;SDS011;15921;52.034;20.650;2022-10-31T09:49:32;63.53;;;31.58;;
28766;SDS011;15921;52.034;20.650;2022-10-31T09:52:29;62.42;;;32.97;;
28766;SDS011;15921;52.034;20.650;2022-10-31T09:55:05;64.78;;;33.53;;
28766;SDS011;15921;52.034;20.650;2022-10-31T09:57:52;59.50;;;33.03;;
28766;SDS011;15921;52.034;20.650;2022-10-31T10:00:21;68.65;;;33.03;;
28766;SDS011;15921;52.034;20.650;2022-10-31T10:02:49;63.50;;;31.10;;
28766;SDS011;15921;52.034;20.650;2022-10-31T10:05:24;58.25;;;31.05;;
28766;SDS011;15921;52.034;20.650;2022-10-31T10:08:09;53.83;;;30.85;;
28766;SDS011;15921;52.034;20.650;2022-10-31T10:10:50;57.45;;;31.00;;
28766;SDS011;15921;52.034;20.650;2022-10-31T10:13:27;51.45;;;29.58;;
28766;SDS011;15921;52.034;20.650;2022-10-31T10:32:17;58.30;;;31.67;;
28766;SDS011;15921;52.034;20.650;2022-10-31T10:34:50;67.47;;;32.42;;
28766;SDS011;15921;52.034;20.650;2022-10-31T10:37:39;52.35;;;29.60;;
28766;SDS011;15921;52.034;20.650;2022-10-31T10:40:15;62.20;;;31.20;;
28766;SDS011;15921;52.034;20.650;2022-10-31T10:51:45;69.60;;;35.78;;
28766;SDS011;15921;52.034;20.650;2022-10-31T11:00:10;69.13;;;35.22;;
28766;SDS011;15921;52.034;20.650;2022-10-31T11:02:44;68.60;;;36.58;;
28766;SDS011;15921;52.034;20.650;2022-10-31T11:05:15;57.75;;;31.98;;
28766;SDS011;15921;52.034;20.650;2022-10-31T11:07:48;58.22;;;29.90;;
28766;SDS011;15921;52.034;20.650;2022-10-31T11:10:14;71.13;;;36.47;;
28766;SDS011;15921;52.034;20.650;2022-10-31T11:12:41;66.25;;;35.45;;
28766;SDS011;15921;52.034;20.650;2022-10-31T11:15:19;58.58;;;32.92;;
28766;SDS011;15921;52.034;20.650;2022-10-31T11:17:51;58.90;;;33.00;;
28766;SDS011;15921;52.034;20.650;2022-10-31T11:22:44;55.33;;;30.95;;
28766;SDS011;15921;52.034;20.650;2022-10-31T11:25:21;52.10;;;29.30;;
28766;SDS011;15921;52.034;20.650;2022-10-31T11:30:31;52.65;;;31.00;;
28766;SDS011;15921;52.034;20.650;2022-10-31T11:33:14;60.58;;;33.20;;
28766;SDS011;15921;52.034;20.650;2022-10-31T11:36:02;50.42;;;28.85;;
28766;SDS011;15921;52.034;20.650;2022-10-31T11:38:41;50.50;;;30.52;;
28766;SDS011;15921;52.034;20.650;2022-10-31T11:41:13;47.00;;;28.80;;
28766;SDS011;15921;52.034;20.650;2022-10-31T11:43:51;55.63;;;32.15;;
28766;SDS011;15921;52.034;20.650;2022-10-31T11:46:55;50.67;;;29.17;;
28766;SDS011;15921;52.034;20.650;2022-10-31T11:49:17;53.45;;;33.00;;
28766;SDS011;15921;52.034;20.650;2022-10-31T11:51:50;50.28;;;29.50;;
28766;SDS011;15921;52.034;20.650;2022-10-31T11:54:23;51.55;;;30.50;;
28766;SDS011;15921;52.034;20.650;2022-10-31T11:57:20;52.92;;;29.20;;
28766;SDS011;15921;52.034;20.650;2022-10-31T12:05:49;46.80;;;29.00;;
28766;SDS011;15921;52.034;20.650;2022-10-31T12:08:37;50.13;;;29.20;;
28766;SDS011;15921;52.034;20.650;2022-10-31T12:19:04;50.30;;;30.83;;
28766;SDS011;15921;52.034;20.650;2022-10-31T12:37:24;65.72;;;35.50;;
28766;SDS011;15921;52.034;20.650;2022-10-31T12:53:40;55.58;;;31.48;;
28766;SDS011;15921;52.034;20.650;2022-10-31T13:01:55;62.25;;;33.30;;
28766;SDS011;15921;52.034;20.650;2022-10-31T13:05:23;62.78;;;33.90;;
28766;SDS011;15921;52.034;20.650;2022-10-31T13:07:27;67.97;;;35.47;;
28766;SDS011;15921;52.034;20.650;2022-10-31T13:10:02;68.28;;;34.53;;
28766;SDS011;15921;52.034;20.650;2022-10-31T13:12:48;59.75;;;32.10;;
28766;SDS011;15921;52.034;20.650;2022-10-31T13:15:24;64.05;;;35.85;;
28766;SDS011;15921;52.034;20.650;2022-10-31T13:18:03;64.68;;;35.00;;
28766;SDS011;15921;52.034;20.650;2022-10-31T13:20:38;65.13;;;33.40;;
28766;SDS011;15921;52.034;20.650;2022-10-31T13:23:11;71.72;;;35.70;;
28766;SDS011;15921;52.034;20.650;2022-10-31T13:25:50;68.07;;;34.42;;
28766;SDS011;15921;52.034;20.650;2022-10-31T13:28:35;72.55;;;33.63;;
28766;SDS011;15921;52.034;20.650;2022-10-31T13:31:07;75.85;;;38.90;;
28766;SDS011;15921;52.034;20.650;2022-10-31T13:36:19;69.07;;;36.05;;
28766;SDS011;15921;52.034;20.650;2022-10-31T13:38:52;76.47;;;37.55;;
28766;SDS011;15921;52.034;20.650;2022-10-31T13:46:49;77.55;;;37.67;;
28766;SDS011;15921;52.034;20.650;2022-10-31T13:54:36;74.30;;;36.33;;
28766;SDS011;15921;52.034;20.650;2022-10-31T13:57:06;86.88;;;40.03;;
28766;SDS011;15921;52.034;20.650;2022-10-31T13:59:45;86.22;;;39.47;;
28766;SDS011;15921;52.034;20.650;2022-10-31T14:02:26;83.78;;;37.05;;
28766;SDS011;15921;52.034;20.650;2022-10-31T14:05:19;81.97;;;35.47;;
28766;SDS011;15921;52.034;20.650;2022-10-31T14:07:55;98.80;;;41.45;;
28766;SDS011;15921;52.034;20.650;2022-10-31T14:15:39;92.85;;;39.35;;
28766;SDS011;15921;52.034;20.650;2022-10-31T14:18:38;83.88;;;37.28;;
28766;SDS011;15921;52.034;20.650;2022-10-31T14:26:54;93.43;;;38.20;;
28766;SDS011;15921;52.034;20.650;2022-10-31T14:29:28;92.20;;;39.97;;
28766;SDS011;15921;52.034;20.650;2022-10-31T14:46:15;96.28;;;39.17;;
28766;SDS011;15921;52.034;20.650;2022-10-31T14:49:26;92.60;;;37.60;;
28766;SDS011;15921;52.034;20.650;2022-10-31T14:51:55;104.35;;;41.05;;
28766;SDS011;15921;52.034;20.650;2022-10-31T14:57:02;107.13;;;42.08;;
28766;SDS011;15921;52.034;20.650;2022-10-31T14:59:31;100.70;;;38.47;;
28766;SDS011;15921;52.034;20.650;2022-10-31T15:02:08;91.57;;;35.05;;
28766;SDS011;15921;52.034;20.650;2022-10-31T15:04:39;91.20;;;32.78;;
28766;SDS011;15921;52.034;20.650;2022-10-31T15:07:19;102.35;;;36.38;;
28766;SDS011;15921;52.034;20.650;2022-10-31T15:10:23;94.00;;;36.88;;
28766;SDS011;15921;52.034;20.650;2022-10-31T15:12:45;92.32;;;35.22;;
28766;SDS011;15921;52.034;20.650;2022-10-31T15:15:14;114.05;;;37.92;;
28766;SDS011;15921;52.034;20.650;2022-10-31T15:17:52;114.50;;;37.97;;
28766;SDS011;15921;52.034;20.650;2022-10-31T15:20:21;103.22;;;39.53;;
28766;SDS011;15921;52.034;20.650;2022-10-31T15:22:49;108.82;;;37.92;;
28766;SDS011;15921;52.034;20.650;2022-10-31T15:25:19;101.97;;;39.80;;
28766;SDS011;15921;52.034;20.650;2022-10-31T15:27:51;99.55;;;38.67;;
28766;SDS011;15921;52.034;20.650;2022-10-31T15:32:47;104.90;;;38.33;;
28766;SDS011;15921;52.034;20.650;2022-10-31T15:35:27;121.25;;;39.80;;
28766;SDS011;15921;52.034;20.650;2022-10-31T15:37:56;98.45;;;36.35;;
28766;SDS011;15921;52.034;20.650;2022-10-31T15:40:24;91.35;;;35.40;;
28766;SDS011;15921;52.034;20.650;2022-10-31T15:43:00;88.00;;;35.67;;
28766;SDS011;15921;52.034;20.650;2022-10-31T15:45:29;85.07;;;34.33;;
28766;SDS011;15921;52.034;20.650;2022-10-31T15:47:58;91.15;;;35.92;;
28766;SDS011;15921;52.034;20.650;2022-10-31T15:50:35;74.78;;;31.48;;
28766;SDS011;15921;52.034;20.650;2022-10-31T15:53:04;89.50;;;36.10;;
28766;SDS011;15921;52.034;20.650;2022-10-31T15:55:33;82.38;;;33.58;;
28766;SDS011;15921;52.034;20.650;2022-10-31T15:58:04;99.88;;;35.33;;
28766;SDS011;15921;52.034;20.650;2022-10-31T16:00:36;90.88;;;33.80;;
28766;SDS011;15921;52.034;20.650;2022-10-31T16:03:07;88.93;;;36.05;;
28766;SDS011;15921;52.034;20.650;2022-10-31T16:05:46;89.45;;;34.95;;
28766;SDS011;15921;52.034;20.650;2022-10-31T16:10:51;87.75;;;35.78;;
28766;SDS011;15921;52.034;20.650;2022-10-31T16:13:25;92.95;;;36.00;;
28766;SDS011;15921;52.034;20.650;2022-10-31T16:16:00;79.30;;;34.33;;
28766;SDS011;15921;52.034;20.650;2022-10-31T16:18:27;85.82;;;36.30;;
28766;SDS011;15921;52.034;20.650;2022-10-31T16:20:55;91.00;;;35.13;;
28766;SDS011;15921;52.034;20.650;2022-10-31T16:23:23;96.43;;;35.88;;
28766;SDS011;15921;52.034;20.650;2022-10-31T16:25:50;80.57;;;34.65;;
28766;SDS011;15921;52.034;20.650;2022-10-31T16:28:26;82.22;;;33.55;;
28766;SDS011;15921;52.034;20.650;2022-10-31T16:30:53;75.95;;;32.50;;
28766;SDS011;15921;52.034;20.650;2022-10-31T16:33:24;76.30;;;33.55;;
28766;SDS011;15921;52.034;20.650;2022-10-31T16:35:53;98.65;;;33.60;;
28766;SDS011;15921;52.034;20.650;2022-10-31T16:38:20;75.40;;;32.10;;
28766;SDS011;15921;52.034;20.650;2022-10-31T16:40:46;83.95;;;33.70;;
28766;SDS011;15921;52.034;20.650;2022-10-31T16:43:12;73.40;;;32.92;;
28766;SDS011;15921;52.034;20.650;2022-10-31T16:45:51;82.57;;;32.67;;
28766;SDS011;15921;52.034;20.650;2022-10-31T16:48:18;74.53;;;32.88;;
28766;SDS011;15921;52.034;20.650;2022-10-31T16:50:46;77.75;;;33.15;;
28766;SDS011;15921;52.034;20.650;2022-10-31T16:53:13;97.68;;;40.08;;
28766;SDS011;15921;52.034;20.650;2022-10-31T16:55:44;89.55;;;36.72;;
28766;SDS011;15921;52.034;20.650;2022-10-31T16:58:23;74.32;;;33.25;;
28766;SDS011;15921;52.034;20.650;2022-10-31T17:00:50;79.32;;;34.92;;
28766;SDS011;15921;52.034;20.650;2022-10-31T17:03:17;83.13;;;37.75;;
28766;SDS011;15921;52.034;20.650;2022-10-31T17:05:43;106.65;;;41.30;;
28766;SDS011;15921;52.034;20.650;2022-10-31T17:08:09;81.22;;;36.17;;
28766;SDS011;15921;52.034;20.650;2022-10-31T17:10:35;90.07;;;36.95;;
28766;SDS011;15921;52.034;20.650;2022-10-31T17:13:04;94.53;;;37.78;;
28766;SDS011;15921;52.034;20.650;2022-10-31T17:15:35;83.60;;;35.28;;